createdAt,value
2023-01-29T00:00:29.563Z,-1.00
2023-01-29T00:03:36.024Z,-1.00
2023-01-29T00:06:42.313Z,-1.08
2023-01-29T00:09:48.549Z,-1.10
2023-01-29T00:12:54.901Z,-1.10
2023-01-29T00:16:01.635Z,-1.20
2023-01-29T00:19:07.931Z,-1.20
2023-01-29T00:22:14.078Z,-1.20
2023-01-29T00:25:20.508Z,-1.28
2023-01-29T00:28:26.831Z,-1.30
2023-01-29T00:31:33.096Z,-1.30
2023-01-29T00:34:39.506Z,-1.30
2023-01-29T00:37:45.644Z,-1.30
2023-01-29T00:41:09.654Z,-1.30
2023-01-29T00:44:34.035Z,-1.30
2023-01-29T00:47:40.101Z,-1.30
2023-01-29T00:50:46.435Z,-1.30
2023-01-29T00:53:57.115Z,-1.30
2023-01-29T00:57:03.437Z,-1.30
2023-01-29T01:00:13.912Z,-1.30
2023-01-29T01:03:21.573Z,-1.30
2023-01-29T01:06:27.863Z,-1.40
2023-01-29T01:09:53.541Z,-1.40
2023-01-29T01:13:03.771Z,-1.40
2023-01-29T01:16:15.131Z,-1.48
2023-01-29T01:19:21.388Z,-1.50
2023-01-29T01:22:27.506Z,-1.50
2023-01-29T01:25:33.956Z,-1.50
2023-01-29T01:28:40.315Z,-1.50
2023-01-29T01:31:46.926Z,-1.50
2023-01-29T01:34:54.919Z,-1.54
2023-01-29T01:38:01.145Z,-1.60
2023-01-29T01:41:07.750Z,-1.60
2023-01-29T01:44:44.341Z,-1.70
2023-01-29T01:47:53.838Z,-1.68
2023-01-29T01:51:03.609Z,-1.64
2023-01-29T01:54:13.423Z,-1.60
2023-01-29T01:57:25.187Z,-1.60
2023-01-29T02:00:31.673Z,-1.60
2023-01-29T02:03:59.750Z,-1.58
2023-01-29T02:07:26.368Z,-1.50
2023-01-29T02:10:38.737Z,-1.50
2023-01-29T02:13:45.733Z,-1.50
2023-01-29T02:16:52.291Z,-1.50
2023-01-29T02:20:07.856Z,-1.46
2023-01-29T02:23:39.597Z,-1.40
2023-01-29T02:26:56.080Z,-1.40
2023-01-29T02:30:07.532Z,-1.38
2023-01-29T02:33:22.349Z,-1.30
2023-01-29T02:36:39.476Z,-1.30
2023-01-29T02:39:52.177Z,-1.30
2023-01-29T02:43:04.291Z,-1.30
2023-01-29T02:46:18.083Z,-1.28
2023-01-29T02:49:31.603Z,-1.22
2023-01-29T02:52:49.746Z,-1.20
2023-01-29T02:56:00.511Z,-1.20
2023-01-29T02:59:13.425Z,-1.20
2023-01-29T03:02:23.196Z,-1.18
2023-01-29T03:05:33.970Z,-1.10
2023-01-29T03:08:45.919Z,-1.10
2023-01-29T03:11:58.914Z,-1.10
2023-01-29T03:15:12.715Z,-1.10
2023-01-29T03:18:26.290Z,-1.10
2023-01-29T03:22:00.461Z,-1.10
2023-01-29T03:25:26.992Z,-1.10
2023-01-29T03:28:52.060Z,-1.10
2023-01-29T03:32:05.609Z,-1.10
2023-01-29T03:35:21.035Z,-1.08
2023-01-29T03:38:29.805Z,-1.02
2023-01-29T03:41:39.004Z,-1.00
2023-01-29T03:44:54.621Z,-1.00
2023-01-29T03:48:09.532Z,-1.00
2023-01-29T03:51:22.557Z,-1.00
2023-01-29T03:54:39.681Z,-1.00
2023-01-29T03:57:52.119Z,-1.00
2023-01-29T04:01:01.372Z,-1.00
2023-01-29T04:04:13.693Z,-1.00
2023-01-29T04:07:25.022Z,-1.00
2023-01-29T04:10:33.132Z,-1.00
2023-01-29T04:13:39.721Z,-1.00
2023-01-29T04:16:50.062Z,-1.00
2023-01-29T04:19:56.897Z,-1.00
2023-01-29T04:23:03.155Z,-1.00
2023-01-29T04:26:25.683Z,-1.00
2023-01-29T04:29:41.936Z,-1.00
2023-01-29T04:33:07.579Z,-1.00
2023-01-29T04:36:35.147Z,-1.00
2023-01-29T04:39:50.429Z,-1.00
2023-01-29T04:43:05.356Z,-1.00
2023-01-29T04:46:27.856Z,-1.00
2023-01-29T04:49:41.721Z,-1.00
2023-01-29T04:52:57.572Z,-1.00
2023-01-29T04:56:19.795Z,-1.00
2023-01-29T04:59:32.214Z,-1.06
2023-01-29T05:02:41.321Z,-1.10
2023-01-29T05:05:49.995Z,-1.10
2023-01-29T05:08:57.708Z,-1.10
2023-01-29T05:12:06.904Z,-1.10
2023-01-29T05:15:19.852Z,-1.10
2023-01-29T05:18:26.375Z,-1.10
2023-01-29T05:21:33.768Z,-1.10
2023-01-29T05:24:41.182Z,-1.10
2023-01-29T05:28:06.269Z,-1.10
2023-01-29T05:31:12.524Z,-1.10
2023-01-29T05:34:18.980Z,-1.10
2023-01-29T05:37:25.205Z,-1.10
2023-01-29T05:40:31.472Z,-1.10
2023-01-29T05:43:37.631Z,-1.10
2023-01-29T05:46:44.077Z,-1.10
2023-01-29T05:49:50.399Z,-1.10
2023-01-29T05:53:00.890Z,-1.10
2023-01-29T05:56:08.351Z,-1.10
2023-01-29T05:59:14.753Z,-1.10
2023-01-29T06:02:21.349Z,-1.10
2023-01-29T06:05:27.659Z,-1.10
2023-01-29T06:08:33.864Z,-1.10
2023-01-29T06:11:39.995Z,-1.10
2023-01-29T06:14:46.292Z,-1.10
2023-01-29T06:17:52.640Z,-1.10
2023-01-29T06:21:03.730Z,-1.12
2023-01-29T06:24:11.411Z,-1.20
2023-01-29T06:27:18.003Z,-1.20
2023-01-29T06:30:24.495Z,-1.20
2023-01-29T06:33:31.241Z,-1.20
2023-01-29T06:36:37.638Z,-1.20
2023-01-29T06:39:45.841Z,-1.30
2023-01-29T06:42:52.435Z,-1.30
2023-01-29T06:45:59.518Z,-1.30
2023-01-29T06:49:05.727Z,-1.30
2023-01-29T06:52:12.217Z,-1.30
2023-01-29T06:55:18.524Z,-1.30
2023-01-29T06:58:25.048Z,-1.30
2023-01-29T07:01:36.016Z,-1.28
2023-01-29T07:04:42.903Z,-1.22
2023-01-29T07:07:49.107Z,-1.30
2023-01-29T07:10:55.451Z,-1.22
2023-01-29T07:14:01.637Z,-1.24
2023-01-29T07:17:07.700Z,-1.22
2023-01-29T07:20:15.272Z,-1.22
2023-01-29T07:23:21.876Z,-1.20
2023-01-29T07:26:28.192Z,-1.20
2023-01-29T07:29:34.301Z,-1.20
2023-01-29T07:32:40.557Z,-1.20
2023-01-29T07:35:46.609Z,-1.20
2023-01-29T07:38:53.932Z,-1.20
2023-01-29T07:42:00.501Z,-1.20
2023-01-29T07:45:08.225Z,-1.18
2023-01-29T07:48:16.059Z,-1.20
2023-01-29T07:51:22.487Z,-1.16
2023-01-29T07:54:29.041Z,-1.20
2023-01-29T07:57:35.299Z,-1.16
2023-01-29T08:00:41.851Z,-1.14
2023-01-29T08:03:50.555Z,-1.10
2023-01-29T08:06:57.485Z,-1.10
2023-01-29T08:10:04.454Z,-1.10
2023-01-29T08:13:11.061Z,-1.10
2023-01-29T08:16:17.837Z,-1.10
2023-01-29T08:19:24.493Z,-1.10
2023-01-29T08:22:30.594Z,-1.10
2023-01-29T08:25:37.527Z,-1.10
2023-01-29T08:28:43.809Z,-1.08
2023-01-29T08:31:50.331Z,-1.02
2023-01-29T08:34:57.351Z,-1.10
2023-01-29T08:38:05.249Z,-1.10
2023-01-29T08:41:12.978Z,-1.10
2023-01-29T08:44:19.933Z,-1.10
2023-01-29T08:47:28.059Z,-1.10
2023-01-29T08:50:35.635Z,-1.10
2023-01-29T08:53:42.065Z,-1.10
2023-01-29T08:56:48.910Z,-1.10
2023-01-29T08:59:55.268Z,-1.10
2023-01-29T09:03:01.671Z,-1.10
2023-01-29T09:06:09.979Z,-1.10
2023-01-29T09:09:16.784Z,-1.10
2023-01-29T09:12:22.923Z,-1.10
2023-01-29T09:15:29.946Z,-1.10
2023-01-29T09:18:37.192Z,-1.10
2023-01-29T09:21:43.617Z,-1.10
2023-01-29T09:24:50.108Z,-1.10
2023-01-29T09:27:59.224Z,-1.10
2023-01-29T09:31:06.261Z,-1.10
2023-01-29T09:34:12.920Z,-1.10
2023-01-29T09:37:21.091Z,-1.10
2023-01-29T09:40:33.376Z,-1.08
2023-01-29T09:43:48.605Z,-1.00
2023-01-29T09:46:57.333Z,-1.00
2023-01-29T09:50:15.819Z,-1.00
2023-01-29T09:53:27.285Z,-1.00
2023-01-29T09:56:33.980Z,-1.00
2023-01-29T09:59:40.633Z,-1.00
2023-01-29T10:03:13.660Z,-1.00
2023-01-29T10:06:30.476Z,-1.00
2023-01-29T10:09:51.043Z,-1.00
2023-01-29T10:13:06.484Z,-1.00
2023-01-29T10:16:34.376Z,-1.00
2023-01-29T10:20:03.744Z,-1.00
2023-01-29T10:23:23.399Z,-1.00
2023-01-29T10:26:30.524Z,-1.00
2023-01-29T10:35:36.216Z,-0.90
2023-01-29T10:38:59.718Z,-0.90
2023-01-29T10:42:27.312Z,-0.92
2023-01-29T10:45:47.848Z,-1.00
2023-01-29T10:49:41.512Z,-1.00
2023-01-29T10:53:08.994Z,-1.00
2023-01-29T10:56:51.900Z,-1.00
2023-01-29T11:00:15.483Z,-1.00
2023-01-29T11:03:37.225Z,-1.00
2023-01-29T11:06:47.659Z,-0.92
2023-01-29T11:10:05.918Z,-0.90
2023-01-29T11:13:19.891Z,-0.90
2023-01-29T11:16:30.747Z,-0.80
2023-01-29T11:19:55.944Z,-0.70
2023-01-29T11:23:06.719Z,-0.66
2023-01-29T11:26:22.623Z,-0.60
2023-01-29T11:29:54.806Z,-0.56
2023-01-29T11:33:22.336Z,-0.60
2023-01-29T11:36:40.531Z,-0.50
2023-01-29T11:39:59.858Z,-0.50
2023-01-29T11:43:29.241Z,-0.60
2023-01-29T11:46:41.684Z,-0.60
2023-01-29T11:50:02.803Z,-0.58
2023-01-29T11:53:28.508Z,-0.50
2023-01-29T11:56:45.908Z,-0.30
2023-01-29T11:59:59.053Z,-0.10
2023-01-29T12:03:25.041Z,0.00
2023-01-29T12:06:48.199Z,0.20
2023-01-29T12:10:00.262Z,0.40
2023-01-29T12:13:19.374Z,0.60
2023-01-29T12:16:34.707Z,0.60
2023-01-29T12:19:49.534Z,0.60
2023-01-29T12:23:15.123Z,0.80
2023-01-29T12:26:33.317Z,0.70
2023-01-29T12:29:54.905Z,0.70
2023-01-29T12:33:27.729Z,0.60
2023-01-29T12:43:28.752Z,0.40
2023-01-29T12:46:50.876Z,0.40
2023-01-29T12:50:08.276Z,0.40
2023-01-29T12:53:34.999Z,0.40
2023-01-29T12:56:49.152Z,0.30
2023-01-29T13:00:06.974Z,0.60
2023-01-29T13:03:48.214Z,1.00
2023-01-29T13:07:12.180Z,1.32
2023-01-29T13:10:36.746Z,1.70
2023-01-29T13:13:54.342Z,2.32
2023-01-29T13:17:16.240Z,2.90
2023-01-29T13:20:37.644Z,3.28
2023-01-29T13:23:50.858Z,3.60
2023-01-29T13:26:59.498Z,4.10
2023-01-29T13:30:10.727Z,4.40
2023-01-29T13:33:26.977Z,4.20
2023-01-29T13:36:38.992Z,4.36
2023-01-29T13:39:53.953Z,4.80
2023-01-29T13:43:05.213Z,4.34
2023-01-29T13:46:21.576Z,4.40
2023-01-29T13:49:43.864Z,5.06
2023-01-29T13:53:02.239Z,5.64
2023-01-29T13:56:59.463Z,5.90
2023-01-29T14:00:33.498Z,5.80
2023-01-29T14:04:06.790Z,5.50
2023-01-29T14:07:52.499Z,4.48
2023-01-29T14:11:38.010Z,4.40
2023-01-29T14:15:27.629Z,4.38
2023-01-29T14:18:38.508Z,3.76
2023-01-29T14:21:53.653Z,3.22
2023-01-29T14:25:07.044Z,2.82
2023-01-29T14:28:24.863Z,2.80
2023-01-29T14:31:50.913Z,2.58
2023-01-29T14:35:04.736Z,2.30
2023-01-29T14:38:17.395Z,2.10
2023-01-29T14:41:33.592Z,2.20
2023-01-29T14:45:23.204Z,2.00
2023-01-29T14:48:49.671Z,1.74
2023-01-29T14:52:00.111Z,1.38
2023-01-29T14:55:17.392Z,1.00
2023-01-29T14:58:35.776Z,0.62
2023-01-29T15:01:53.458Z,0.38
2023-01-29T15:05:08.680Z,0.18
2023-01-29T15:08:30.209Z,-0.10
2023-01-29T15:11:50.055Z,-0.30
2023-01-29T15:15:38.265Z,-0.50
2023-01-29T15:18:49.325Z,-0.68
2023-01-29T15:22:14.831Z,-0.80
2023-01-29T15:25:25.199Z,-0.92
2023-01-29T15:28:36.452Z,-1.00
2023-01-29T15:31:47.067Z,-1.18
2023-01-29T15:35:00.679Z,-1.20
2023-01-29T15:38:19.509Z,-1.30
2023-01-29T15:41:27.722Z,-1.40
2023-01-29T15:44:36.161Z,-1.50
2023-01-29T15:47:48.954Z,-1.60
2023-01-29T15:50:59.847Z,-1.68
2023-01-29T15:54:15.983Z,-1.70
2023-01-29T15:57:37.665Z,-1.80
2023-01-29T16:00:56.453Z,-1.82
2023-01-29T16:04:06.317Z,-1.90
2023-01-29T16:07:15.746Z,-1.90
2023-01-29T16:10:27.067Z,-2.00
2023-01-29T16:13:41.241Z,-2.00
2023-01-29T16:16:49.695Z,-2.10
2023-01-29T16:20:06.615Z,-2.20
2023-01-29T16:23:25.463Z,-2.30
2023-01-29T16:26:39.569Z,-2.30
2023-01-29T16:29:48.513Z,-2.40
2023-01-29T16:33:02.222Z,-2.40
2023-01-29T16:36:19.284Z,-2.50
2023-01-29T16:39:31.042Z,-2.50
2023-01-29T16:42:40.902Z,-2.60
2023-01-29T16:46:14.811Z,-2.60
2023-01-29T16:49:52.860Z,-2.70
2023-01-29T16:53:07.161Z,-2.70
2023-01-29T16:56:15.943Z,-2.70
2023-01-29T16:59:32.500Z,-2.80
2023-01-29T17:02:43.357Z,-2.80
2023-01-29T17:05:52.984Z,-2.90
2023-01-29T17:09:04.046Z,-2.90
2023-01-29T17:12:21.406Z,-2.90
2023-01-29T17:15:47.704Z,-2.90
2023-01-29T17:18:56.373Z,-2.90
2023-01-29T17:22:08.593Z,-2.90
2023-01-29T17:25:20.180Z,-2.90
2023-01-29T17:28:31.217Z,-3.00
2023-01-29T17:31:39.533Z,-2.98
2023-01-29T17:34:48.260Z,-3.00
2023-01-29T17:37:56.513Z,-3.00
2023-01-29T17:41:11.292Z,-3.00
2023-01-29T17:44:19.497Z,-3.06
2023-01-29T17:47:28.518Z,-3.10
2023-01-29T17:50:39.729Z,-3.10
2023-01-29T17:53:47.861Z,-3.10
2023-01-29T17:56:58.422Z,-3.10
2023-01-29T18:00:11.201Z,-3.10
2023-01-29T18:03:20.558Z,-3.10
2023-01-29T18:06:33.696Z,-3.12
2023-01-29T18:09:43.531Z,-3.20
2023-01-29T18:12:51.750Z,-3.20
2023-01-29T18:16:00.050Z,-3.20
2023-01-29T18:19:16.482Z,-3.20
2023-01-29T18:22:24.730Z,-3.24
2023-01-29T18:25:33.193Z,-3.30
2023-01-29T18:28:43.552Z,-3.30
2023-01-29T18:31:52.705Z,-3.30
2023-01-29T18:35:01.299Z,-3.30
2023-01-29T18:38:09.109Z,-3.30
2023-01-29T18:41:17.093Z,-3.30
2023-01-29T18:44:25.831Z,-3.30
2023-01-29T18:47:34.032Z,-3.30
2023-01-29T18:50:42.759Z,-3.40
2023-01-29T18:53:55.225Z,-3.40
2023-01-29T18:57:06.302Z,-3.46
2023-01-29T19:00:22.506Z,-3.50
2023-01-29T19:03:32.596Z,-3.50
2023-01-29T19:06:41.752Z,-3.60
2023-01-29T19:09:51.294Z,-3.60
2023-01-29T19:12:59.996Z,-3.62
2023-01-29T19:16:12.792Z,-3.68
2023-01-29T19:19:21.229Z,-3.70
2023-01-29T19:22:30.776Z,-3.70
2023-01-29T19:25:43.904Z,-3.70
2023-01-29T19:28:53.544Z,-3.70
2023-01-29T19:32:02.134Z,-3.70
2023-01-29T19:35:12.207Z,-3.70
2023-01-29T19:38:21.406Z,-3.70
2023-01-29T19:41:31.170Z,-3.70
2023-01-29T19:44:39.051Z,-3.70
2023-01-29T19:47:47.986Z,-3.70
2023-01-29T19:51:04.753Z,-3.70
2023-01-29T19:54:14.991Z,-3.70
2023-01-29T19:57:23.497Z,-3.70
2023-01-29T20:00:32.204Z,-3.70
2023-01-29T20:03:42.241Z,-3.70
2023-01-29T20:06:51.061Z,-3.70
2023-01-29T20:10:01.352Z,-3.70
2023-01-29T20:13:10.488Z,-3.70
2023-01-29T20:16:19.494Z,-3.70
2023-01-29T20:19:27.733Z,-3.70
2023-01-29T20:22:36.269Z,-3.72
2023-01-29T20:25:44.681Z,-3.74
2023-01-29T20:28:50.853Z,-3.72
2023-01-29T20:32:00.713Z,-3.70
2023-01-29T20:35:10.877Z,-3.72
2023-01-29T20:38:19.151Z,-3.72
2023-01-29T20:41:28.857Z,-3.78
2023-01-29T20:44:35.607Z,-3.78
2023-01-29T20:47:43.702Z,-3.80
2023-01-29T20:50:51.992Z,-3.80
2023-01-29T20:54:00.639Z,-3.80
2023-01-29T20:57:10.650Z,-3.80
2023-01-29T21:00:26.821Z,-3.80
2023-01-29T21:03:36.088Z,-3.80
2023-01-29T21:06:45.528Z,-3.80
2023-01-29T21:09:54.354Z,-3.80
2023-01-29T21:13:02.820Z,-3.84
2023-01-29T21:16:12.163Z,-3.88
2023-01-29T21:19:21.435Z,-3.90
2023-01-29T21:22:30.457Z,-3.90
2023-01-29T21:25:43.141Z,-3.90
2023-01-29T21:28:55.539Z,-3.90
2023-01-29T21:32:04.484Z,-3.90
2023-01-29T21:35:13.964Z,-3.90
2023-01-29T21:38:21.767Z,-3.90
2023-01-29T21:41:43.571Z,-3.94
2023-01-29T21:44:51.381Z,-3.96
2023-01-29T21:47:59.523Z,-3.92
2023-01-29T21:51:07.807Z,-3.90
2023-01-29T21:54:16.344Z,-3.90
2023-01-29T21:57:26.544Z,-3.90
2023-01-29T22:00:34.866Z,-3.90
2023-01-29T22:03:44.166Z,-3.90
2023-01-29T22:06:54.058Z,-3.90
2023-01-29T22:10:02.345Z,-3.90
2023-01-29T22:13:10.416Z,-3.90
2023-01-29T22:16:18.195Z,-3.90
2023-01-29T22:19:29.425Z,-3.90
2023-01-29T22:22:37.282Z,-3.90
2023-01-29T22:25:45.574Z,-3.90
2023-01-29T22:28:53.600Z,-3.90
2023-01-29T22:32:01.959Z,-3.80
2023-01-29T22:35:12.178Z,-3.80
2023-01-29T22:38:20.515Z,-3.74
2023-01-29T22:41:28.527Z,-3.70
2023-01-29T22:44:36.592Z,-3.70
2023-01-29T22:51:09.627Z,-3.62
2023-01-29T22:54:17.851Z,-3.60
2023-01-29T22:57:25.924Z,-3.60
2023-01-29T23:00:33.929Z,-3.60
2023-01-29T23:03:42.119Z,-3.60
2023-01-29T23:06:49.993Z,-3.60
2023-01-29T23:09:58.152Z,-3.60
2023-01-29T23:13:06.060Z,-3.60
2023-01-29T23:16:15.098Z,-3.60
2023-01-29T23:19:23.385Z,-3.60
2023-01-29T23:22:31.358Z,-3.60
2023-01-29T23:25:48.862Z,-3.60
2023-01-29T23:28:56.939Z,-3.50
2023-01-29T23:32:05.202Z,-3.50
2023-01-29T23:35:13.991Z,-3.50
2023-01-29T23:38:21.898Z,-3.52
2023-01-29T23:41:29.920Z,-3.60
2023-01-29T23:44:37.982Z,-3.60
2023-01-29T23:47:45.859Z,-3.60
2023-01-29T23:50:54.610Z,-3.60
2023-01-29T23:54:03.363Z,-3.60
2023-01-29T23:57:11.241Z,-3.60
